South Hero, Vermont
Current Conditions -  °F | °C
As of 8:24 AM on Monday 22 Dec 2014 (Local Time) from KPBG Reporting Station
Haze Haze  
Wind Chill: 10°   Ceiling: 400
Heat Index: 19°   Visibility: 3mi
Dew Point: 17°   Wind: 7mph
Humidity: 92%   Direction: 340°NNW
Pressure: 30.4"   Gusts: NA
Location:  44.65°N, 73.3°W
Report Text: KPBG 221324Z AUTO 34006KT 3SM BR OVC004 M07/M08 A3040 RMK AO2 I1000 T10721083
Loading
Personal Weather Stations






























Interactive Weather Map New forecast layout! Learn more

10-Day Weather Forecast

Advertisements
Track Severe Weather on mobile